NKS1003 KDFW-KGYR
Flight info
| Callsign | NKS1003 |
|---|---|
| Flight time | N/A |
| Altitude | 32000 |
| Route | NELYN6 HOARY JCT EWM SSO SUNSS8 |
| Aircraft | A20N/M-SDE2E3FGHIRWXY/LB1 |
Departure
| Time | N/A |
|---|---|
| Airport | Dallas Fort Worth International Airport (KDFW) |
Arrival
| Time | 2026-05-06 02:57 |
|---|---|
| Airport | Phoenix Goodyear Airport (KGYR) |
| Time | Latitude | Longitude | Altitude | Speed | Heading |
|---|---|---|---|---|---|
| 2026-05-06 00:53 | 32.55151 | -99.26154 | 31768 ft | 360 kts | 261° |
| 2026-05-06 00:53 | 32.54829 | -99.29772 | 31770 ft | 360 kts | 261° |
| 2026-05-06 00:54 | 32.54399 | -99.34689 | 31768 ft | 359 kts | 262° |
| 2026-05-06 00:54 | 32.54049 | -99.40622 | 31780 ft | 360 kts | 263° |
| 2026-05-06 00:55 | 32.53727 | -99.46513 | 31786 ft | 359 kts | 262° |
| 2026-05-06 00:55 | 32.53417 | -99.52447 | 31784 ft | 359 kts | 262° |
| 2026-05-06 00:56 | 32.53004 | -99.58298 | 31793 ft | 359 kts | 261° |
| 2026-05-06 00:56 | 32.52608 | -99.64226 | 31801 ft | 360 kts | 262° |
| 2026-05-06 00:57 | 32.52248 | -99.70125 | 31801 ft | 360 kts | 262° |
| 2026-05-06 00:57 | 32.51891 | -99.76071 | 31802 ft | 360 kts | 262° |
| 2026-05-06 00:58 | 32.51557 | -99.81981 | 31782 ft | 360 kts | 261° |
| 2026-05-06 00:58 | 32.51261 | -99.87879 | 31794 ft | 357 kts | 265° |
| 2026-05-06 00:59 | 32.51256 | -99.93783 | 31778 ft | 358 kts | 264° |
| 2026-05-06 00:59 | 32.51272 | -99.99657 | 31775 ft | 359 kts | 265° |
| 2026-05-06 01:00 | 32.51326 | -100.05558 | 31764 ft | 359 kts | 265° |
| 2026-05-06 01:00 | 32.51387 | -100.11477 | 31758 ft | 359 kts | 265° |
| 2026-05-06 01:01 | 32.51445 | -100.17400 | 31747 ft | 359 kts | 265° |
| 2026-05-06 01:01 | 32.51501 | -100.23248 | 31746 ft | 351 kts | 265° |
| 2026-05-06 01:02 | 32.51552 | -100.29033 | 31735 ft | 352 kts | 265° |
| 2026-05-06 01:02 | 32.51575 | -100.31940 | 31856 ft | 352 kts | 265° |
| 2026-05-06 01:02 | 32.51599 | -100.34836 | 31868 ft | 352 kts | 264° |
| 2026-05-06 01:03 | 32.51643 | -100.40611 | 31877 ft | 352 kts | 264° |
| 2026-05-06 01:03 | 32.51684 | -100.46409 | 31879 ft | 352 kts | 264° |
| 2026-05-06 01:04 | 32.51722 | -100.52186 | 31879 ft | 352 kts | 264° |
| 2026-05-06 01:04 | 32.51757 | -100.57990 | 31862 ft | 352 kts | 264° |
| 2026-05-06 01:05 | 32.51789 | -100.63827 | 31846 ft | 354 kts | 264° |
| 2026-05-06 01:05 | 32.51819 | -100.69638 | 31822 ft | 354 kts | 264° |
| 2026-05-06 01:06 | 32.51846 | -100.75477 | 31793 ft | 354 kts | 264° |
| 2026-05-06 01:06 | 32.51870 | -100.81314 | 31807 ft | 354 kts | 264° |
| 2026-05-06 01:07 | 32.51892 | -100.87111 | 31814 ft | 354 kts | 264° |
| 2026-05-06 01:07 | 32.51911 | -100.92961 | 31819 ft | 354 kts | 264° |
| 2026-05-06 01:08 | 32.51927 | -100.98799 | 31820 ft | 354 kts | 264° |
| 2026-05-06 01:08 | 32.51940 | -101.04608 | 31813 ft | 354 kts | 264° |
| 2026-05-06 01:09 | 32.51951 | -101.10444 | 31803 ft | 354 kts | 264° |
| 2026-05-06 01:09 | 32.51960 | -101.16254 | 31789 ft | 354 kts | 264° |
| 2026-05-06 01:10 | 32.51965 | -101.22089 | 31767 ft | 353 kts | 264° |
| 2026-05-06 01:10 | 32.51968 | -101.27898 | 31732 ft | 353 kts | 264° |
| 2026-05-06 01:11 | 32.51965 | -101.33758 | 31732 ft | 358 kts | 264° |
| 2026-05-06 01:11 | 32.51963 | -101.39638 | 31733 ft | 358 kts | 264° |
| 2026-05-06 01:12 | 32.51958 | -101.45516 | 31733 ft | 358 kts | 264° |
| 2026-05-06 01:12 | 32.51950 | -101.51428 | 31735 ft | 358 kts | 264° |
| 2026-05-06 01:13 | 32.51939 | -101.57329 | 31736 ft | 358 kts | 264° |
| 2026-05-06 01:13 | 32.51925 | -101.63195 | 31748 ft | 358 kts | 264° |
| 2026-05-06 01:14 | 32.51900 | -101.72061 | 31762 ft | 358 kts | 264° |
| 2026-05-06 01:14 | 32.51879 | -101.77950 | 31778 ft | 359 kts | 264° |
| 2026-05-06 01:15 | 32.51856 | -101.83895 | 31800 ft | 360 kts | 264° |
| 2026-05-06 01:15 | 32.51830 | -101.89811 | 31807 ft | 360 kts | 264° |
| 2026-05-06 01:16 | 32.51801 | -101.95718 | 31806 ft | 360 kts | 264° |
| 2026-05-06 01:16 | 32.51769 | -102.01674 | 31799 ft | 360 kts | 264° |
| 2026-05-06 01:17 | 32.51736 | -102.07592 | 31780 ft | 360 kts | 263° |
| 2026-05-06 01:17 | 32.51698 | -102.13557 | 31768 ft | 361 kts | 263° |
| 2026-05-06 01:18 | 32.51657 | -102.19512 | 31748 ft | 361 kts | 263° |
| 2026-05-06 01:18 | 32.51614 | -102.25454 | 31752 ft | 361 kts | 263° |
| 2026-05-06 01:19 | 32.51568 | -102.31385 | 31777 ft | 362 kts | 263° |
| 2026-05-06 01:19 | 32.51520 | -102.37361 | 31796 ft | 362 kts | 263° |
| 2026-05-06 01:20 | 32.51469 | -102.43294 | 31840 ft | 362 kts | 263° |
| 2026-05-06 01:20 | 32.51415 | -102.49259 | 31861 ft | 361 kts | 263° |
| 2026-05-06 01:21 | 32.51357 | -102.55215 | 31873 ft | 361 kts | 263° |
| 2026-05-06 01:21 | 32.51298 | -102.61129 | 31881 ft | 360 kts | 263° |
| 2026-05-06 01:22 | 32.51235 | -102.67081 | 31879 ft | 360 kts | 263° |
| 2026-05-06 01:22 | 32.51171 | -102.72994 | 31883 ft | 360 kts | 263° |
| 2026-05-06 01:23 | 32.51103 | -102.78938 | 31863 ft | 360 kts | 263° |
| 2026-05-06 01:23 | 32.51032 | -102.84839 | 31837 ft | 359 kts | 263° |
| 2026-05-06 01:24 | 32.50959 | -102.90768 | 31806 ft | 358 kts | 263° |
| 2026-05-06 01:24 | 32.50884 | -102.96634 | 31775 ft | 358 kts | 263° |
| 2026-05-06 01:25 | 32.50805 | -103.02537 | 31743 ft | 357 kts | 263° |
| 2026-05-06 01:25 | 32.50724 | -103.08404 | 31739 ft | 357 kts | 263° |
| 2026-05-06 01:26 | 32.50639 | -103.14315 | 31857 ft | 357 kts | 263° |
| 2026-05-06 01:26 | 32.50553 | -103.20176 | 31847 ft | 357 kts | 263° |
| 2026-05-06 01:27 | 32.50464 | -103.26045 | 31841 ft | 357 kts | 263° |
| 2026-05-06 01:27 | 32.50372 | -103.31932 | 31830 ft | 357 kts | 263° |
| 2026-05-06 01:28 | 32.50277 | -103.37801 | 31817 ft | 357 kts | 262° |
| 2026-05-06 01:28 | 32.50179 | -103.43688 | 31797 ft | 357 kts | 262° |
| 2026-05-06 01:29 | 32.50079 | -103.49564 | 31785 ft | 357 kts | 262° |
| 2026-05-06 01:29 | 32.49977 | -103.55429 | 31760 ft | 357 kts | 262° |
| 2026-05-06 01:30 | 32.49871 | -103.61291 | 31749 ft | 356 kts | 262° |
| 2026-05-06 01:30 | 32.49763 | -103.67161 | 31744 ft | 356 kts | 262° |
| 2026-05-06 01:31 | 32.49652 | -103.73041 | 31740 ft | 356 kts | 262° |
| 2026-05-06 01:31 | 32.49539 | -103.78880 | 31738 ft | 356 kts | 262° |
| 2026-05-06 01:32 | 32.49422 | -103.84752 | 31734 ft | 356 kts | 262° |
| 2026-05-06 01:32 | 32.49303 | -103.90597 | 31724 ft | 357 kts | 262° |
| 2026-05-06 01:33 | 32.49181 | -103.96477 | 31716 ft | 357 kts | 262° |
| 2026-05-06 01:33 | 32.49056 | -104.02362 | 31727 ft | 357 kts | 262° |
| 2026-05-06 01:34 | 32.48929 | -104.08229 | 31724 ft | 357 kts | 262° |
| 2026-05-06 01:34 | 32.48798 | -104.14111 | 31726 ft | 357 kts | 262° |
| 2026-05-06 01:35 | 32.48665 | -104.19997 | 31725 ft | 357 kts | 262° |
| 2026-05-06 01:35 | 32.48529 | -104.25891 | 31725 ft | 362 kts | 262° |
| 2026-05-06 01:36 | 32.48389 | -104.31822 | 31725 ft | 361 kts | 262° |
| 2026-05-06 01:36 | 32.48246 | -104.37792 | 31732 ft | 361 kts | 262° |
| 2026-05-06 01:37 | 32.48101 | -104.43737 | 31732 ft | 361 kts | 262° |
| 2026-05-06 01:37 | 32.47953 | -104.49660 | 31732 ft | 360 kts | 262° |
| 2026-05-06 01:38 | 32.47802 | -104.55597 | 31744 ft | 361 kts | 262° |
| 2026-05-06 01:38 | 32.47647 | -104.61526 | 31750 ft | 361 kts | 262° |
| 2026-05-06 01:39 | 32.47491 | -104.67457 | 31762 ft | 361 kts | 262° |
| 2026-05-06 01:39 | 32.47331 | -104.73421 | 31761 ft | 361 kts | 262° |
| 2026-05-06 01:40 | 32.47196 | -104.78373 | 31763 ft | 361 kts | 262° |
| 2026-05-06 01:40 | 32.47032 | -104.84298 | 31762 ft | 361 kts | 262° |
| 2026-05-06 01:41 | 32.46866 | -104.90252 | 31762 ft | 361 kts | 262° |
| 2026-05-06 01:41 | 32.46698 | -104.96176 | 31763 ft | 358 kts | 261° |
| 2026-05-06 01:42 | 32.46523 | -105.02075 | 31757 ft | 358 kts | 261° |
| 2026-05-06 01:42 | 32.46347 | -105.07935 | 31767 ft | 357 kts | 261° |
| 2026-05-06 01:43 | 32.46172 | -105.13802 | 31770 ft | 358 kts | 261° |
| 2026-05-06 01:43 | 32.46006 | -105.19299 | 31766 ft | 359 kts | 261° |
| 2026-05-06 01:44 | 32.45824 | -105.25242 | 31798 ft | 361 kts | 261° |
| 2026-05-06 01:44 | 32.45642 | -105.31101 | 31786 ft | 355 kts | 261° |
| 2026-05-06 01:45 | 32.45452 | -105.36970 | 31782 ft | 355 kts | 261° |
| 2026-05-06 01:45 | 32.45262 | -105.42787 | 31782 ft | 355 kts | 261° |
| 2026-05-06 01:46 | 32.45068 | -105.48632 | 31788 ft | 356 kts | 261° |
| 2026-05-06 01:46 | 32.44873 | -105.54495 | 31787 ft | 356 kts | 261° |
| 2026-05-06 01:47 | 32.44677 | -105.60325 | 31790 ft | 355 kts | 261° |
| 2026-05-06 01:47 | 32.44477 | -105.66182 | 31782 ft | 355 kts | 261° |
| 2026-05-06 01:48 | 32.44275 | -105.71999 | 31781 ft | 356 kts | 261° |
| 2026-05-06 01:48 | 32.44069 | -105.77865 | 31782 ft | 355 kts | 261° |
| 2026-05-06 01:49 | 32.43857 | -105.83718 | 31771 ft | 355 kts | 260° |
| 2026-05-06 01:49 | 32.43638 | -105.89562 | 31770 ft | 355 kts | 261° |
| 2026-05-06 01:50 | 32.43434 | -105.95379 | 31756 ft | 355 kts | 261° |
| 2026-05-06 01:50 | 32.43221 | -106.01230 | 31747 ft | 356 kts | 261° |
| 2026-05-06 01:51 | 32.43003 | -106.07093 | 31744 ft | 356 kts | 261° |
| 2026-05-06 01:51 | 32.42781 | -106.12930 | 31748 ft | 357 kts | 261° |
| 2026-05-06 01:52 | 32.42555 | -106.18815 | 31752 ft | 358 kts | 261° |
| 2026-05-06 01:52 | 32.42327 | -106.24674 | 31748 ft | 358 kts | 261° |
| 2026-05-06 01:53 | 32.42095 | -106.30584 | 31749 ft | 358 kts | 261° |
| 2026-05-06 01:53 | 32.41862 | -106.36462 | 31741 ft | 359 kts | 260° |
| 2026-05-06 01:54 | 32.41623 | -106.42385 | 31741 ft | 360 kts | 260° |
| 2026-05-06 01:54 | 32.41384 | -106.48278 | 31752 ft | 360 kts | 260° |
| 2026-05-06 01:55 | 32.41139 | -106.54218 | 31746 ft | 361 kts | 260° |
| 2026-05-06 01:55 | 32.40892 | -106.60148 | 31744 ft | 360 kts | 260° |
| 2026-05-06 01:56 | 32.40644 | -106.66044 | 31741 ft | 360 kts | 260° |
| 2026-05-06 01:56 | 32.40391 | -106.71988 | 31744 ft | 364 kts | 260° |
| 2026-05-06 01:57 | 32.40132 | -106.77983 | 31743 ft | 364 kts | 260° |
| 2026-05-06 01:57 | 32.39873 | -106.83933 | 31743 ft | 364 kts | 260° |
| 2026-05-06 01:58 | 32.39610 | -106.89929 | 31741 ft | 364 kts | 259° |
| 2026-05-06 01:58 | 32.39344 | -106.95911 | 31741 ft | 364 kts | 260° |
| 2026-05-06 01:59 | 32.39073 | -107.01894 | 31744 ft | 365 kts | 259° |
| 2026-05-06 01:59 | 32.38800 | -107.07898 | 31746 ft | 365 kts | 259° |
| 2026-05-06 02:00 | 32.38526 | -107.13897 | 31749 ft | 365 kts | 259° |
| 2026-05-06 02:00 | 32.38249 | -107.19859 | 31751 ft | 365 kts | 259° |
| 2026-05-06 02:01 | 32.37967 | -107.25872 | 31749 ft | 365 kts | 259° |
| 2026-05-06 02:01 | 32.37685 | -107.31846 | 31748 ft | 365 kts | 259° |
| 2026-05-06 02:02 | 32.37398 | -107.37845 | 31754 ft | 364 kts | 259° |
| 2026-05-06 02:02 | 32.37109 | -107.43822 | 31747 ft | 365 kts | 259° |
| 2026-05-06 02:03 | 32.36818 | -107.49774 | 31758 ft | 365 kts | 259° |
| 2026-05-06 02:03 | 32.36523 | -107.55774 | 31764 ft | 365 kts | 259° |
| 2026-05-06 02:04 | 32.36225 | -107.61771 | 31769 ft | 364 kts | 259° |
| 2026-05-06 02:04 | 32.35925 | -107.67768 | 31772 ft | 365 kts | 259° |
| 2026-05-06 02:05 | 32.35624 | -107.73701 | 31769 ft | 365 kts | 259° |
| 2026-05-06 02:05 | 32.35315 | -107.79715 | 31774 ft | 365 kts | 259° |
| 2026-05-06 02:06 | 32.35005 | -107.85708 | 31769 ft | 364 kts | 259° |
| 2026-05-06 02:06 | 32.34695 | -107.91665 | 31776 ft | 364 kts | 259° |
| 2026-05-06 02:07 | 32.34380 | -107.97647 | 31790 ft | 364 kts | 259° |
| 2026-05-06 02:07 | 32.34060 | -108.03639 | 31773 ft | 364 kts | 259° |
| 2026-05-06 02:08 | 32.33743 | -108.09571 | 31771 ft | 363 kts | 259° |
| 2026-05-06 02:08 | 32.33420 | -108.15554 | 31767 ft | 363 kts | 259° |
| 2026-05-06 02:09 | 32.33097 | -108.21498 | 31771 ft | 363 kts | 259° |
| 2026-05-06 02:09 | 32.32769 | -108.27478 | 31784 ft | 363 kts | 259° |
| 2026-05-06 02:10 | 32.32439 | -108.33416 | 31819 ft | 364 kts | 259° |
| 2026-05-06 02:10 | 32.32105 | -108.39382 | 31851 ft | 364 kts | 259° |
| 2026-05-06 02:11 | 32.31767 | -108.45382 | 31889 ft | 364 kts | 259° |
| 2026-05-06 02:11 | 32.31427 | -108.51367 | 31917 ft | 364 kts | 259° |
| 2026-05-06 02:12 | 32.31087 | -108.57306 | 31946 ft | 363 kts | 259° |
| 2026-05-06 02:12 | 32.30744 | -108.63231 | 31949 ft | 363 kts | 259° |
| 2026-05-06 02:13 | 32.30398 | -108.69180 | 31941 ft | 362 kts | 259° |
| 2026-05-06 02:13 | 32.30049 | -108.75112 | 31762 ft | 361 kts | 259° |
| 2026-05-06 02:14 | 32.29699 | -108.81019 | 31771 ft | 361 kts | 259° |
| 2026-05-06 02:14 | 32.29346 | -108.86949 | 31769 ft | 361 kts | 259° |
| 2026-05-06 02:15 | 32.28994 | -108.92850 | 31769 ft | 360 kts | 259° |
| 2026-05-06 02:15 | 32.28638 | -108.98770 | 31764 ft | 360 kts | 259° |
| 2026-05-06 02:16 | 32.28283 | -109.04640 | 31762 ft | 360 kts | 259° |
| 2026-05-06 02:16 | 32.27920 | -109.10560 | 31774 ft | 360 kts | 259° |
| 2026-05-06 02:17 | 32.27556 | -109.16441 | 31787 ft | 360 kts | 259° |
| 2026-05-06 02:17 | 32.27224 | -109.22356 | 31785 ft | 362 kts | 261° |
| 2026-05-06 02:18 | 32.27599 | -109.28332 | 31789 ft | 372 kts | 270° |
| 2026-05-06 02:18 | 32.28881 | -109.34342 | 31774 ft | 379 kts | 276° |
| 2026-05-06 02:19 | 32.30354 | -109.40331 | 31776 ft | 378 kts | 275° |
| 2026-05-06 02:19 | 32.31806 | -109.46279 | 31800 ft | 378 kts | 275° |
| 2026-05-06 02:20 | 32.33978 | -109.55217 | 31787 ft | 377 kts | 275° |
| 2026-05-06 02:21 | 32.35424 | -109.61184 | 31781 ft | 377 kts | 275° |
| 2026-05-06 02:21 | 32.36861 | -109.67133 | 31791 ft | 376 kts | 275° |
| 2026-05-06 02:22 | 32.38300 | -109.73101 | 31802 ft | 377 kts | 275° |
| 2026-05-06 02:22 | 32.39735 | -109.79065 | 31801 ft | 377 kts | 275° |
| 2026-05-06 02:23 | 32.41160 | -109.84999 | 31821 ft | 377 kts | 275° |
| 2026-05-06 02:23 | 32.42593 | -109.90979 | 31819 ft | 377 kts | 275° |
| 2026-05-06 02:24 | 32.44014 | -109.96925 | 31834 ft | 376 kts | 275° |
| 2026-05-06 02:24 | 32.45438 | -110.02896 | 31830 ft | 376 kts | 275° |
| 2026-05-06 02:25 | 32.46617 | -110.07850 | 31832 ft | 376 kts | 275° |
| 2026-05-06 02:25 | 32.48034 | -110.13823 | 31863 ft | 376 kts | 275° |
| 2026-05-06 02:26 | 32.49681 | -110.20776 | 31846 ft | 376 kts | 275° |
| 2026-05-06 02:26 | 32.50857 | -110.25752 | 31838 ft | 376 kts | 275° |
| 2026-05-06 02:27 | 32.52272 | -110.31761 | 31840 ft | 376 kts | 275° |
| 2026-05-06 02:27 | 32.53665 | -110.37679 | 31849 ft | 374 kts | 275° |
| 2026-05-06 02:28 | 32.55066 | -110.43641 | 31851 ft | 374 kts | 275° |
| 2026-05-06 02:28 | 32.56450 | -110.49548 | 31856 ft | 373 kts | 275° |
| 2026-05-06 02:29 | 32.57840 | -110.55496 | 31853 ft | 374 kts | 275° |
| 2026-05-06 02:29 | 32.59230 | -110.61453 | 31854 ft | 374 kts | 275° |
| 2026-05-06 02:30 | 32.60603 | -110.67365 | 31861 ft | 374 kts | 275° |
| 2026-05-06 02:30 | 32.61983 | -110.73320 | 31842 ft | 373 kts | 275° |
| 2026-05-06 02:30 | 32.62663 | -110.76252 | 31613 ft | 373 kts | 275° |
| 2026-05-06 02:31 | 32.63350 | -110.79228 | 31197 ft | 373 kts | 275° |
| 2026-05-06 02:31 | 32.64038 | -110.82209 | 30711 ft | 374 kts | 274° |
| 2026-05-06 02:31 | 32.64726 | -110.85191 | 30178 ft | 373 kts | 275° |
| 2026-05-06 02:31 | 32.65412 | -110.88161 | 29523 ft | 370 kts | 275° |
| 2026-05-06 02:32 | 32.66082 | -110.91064 | 28780 ft | 365 kts | 275° |
| 2026-05-06 02:32 | 32.66772 | -110.93968 | 27956 ft | 364 kts | 277° |
| 2026-05-06 02:32 | 32.67719 | -110.96788 | 27206 ft | 369 kts | 284° |
| 2026-05-06 02:32 | 32.68972 | -110.99438 | 26444 ft | 375 kts | 290° |
| 2026-05-06 02:33 | 32.70557 | -111.01945 | 25700 ft | 383 kts | 297° |
| 2026-05-06 02:33 | 32.71753 | -111.03498 | 25210 ft | 383 kts | 300° |
| 2026-05-06 02:34 | 32.77670 | -111.11113 | 22747 ft | 371 kts | 301° |
| 2026-05-06 02:34 | 32.79409 | -111.13371 | 21921 ft | 368 kts | 301° |
| 2026-05-06 02:34 | 32.81133 | -111.15614 | 21118 ft | 365 kts | 302° |
| 2026-05-06 02:34 | 32.82846 | -111.17845 | 20262 ft | 364 kts | 303° |
| 2026-05-06 02:35 | 32.84534 | -111.20046 | 19444 ft | 364 kts | 304° |
| 2026-05-06 02:35 | 32.86242 | -111.22271 | 18618 ft | 364 kts | 305° |
| 2026-05-06 02:35 | 32.87948 | -111.24498 | 17739 ft | 365 kts | 307° |
| 2026-05-06 02:35 | 32.89663 | -111.26734 | 16780 ft | 366 kts | 307° |
| 2026-05-06 02:36 | 32.91383 | -111.28970 | 15812 ft | 366 kts | 307° |
| 2026-05-06 02:36 | 32.93098 | -111.31195 | 14830 ft | 359 kts | 307° |
| 2026-05-06 02:36 | 32.94776 | -111.33373 | 13869 ft | 353 kts | 308° |
| 2026-05-06 02:36 | 32.96404 | -111.35487 | 12846 ft | 348 kts | 308° |
| 2026-05-06 02:37 | 32.98029 | -111.37603 | 11822 ft | 343 kts | 308° |
| 2026-05-06 02:37 | 32.99636 | -111.39697 | 10817 ft | 340 kts | 309° |
| 2026-05-06 02:37 | 33.01235 | -111.41785 | 9890 ft | 339 kts | 309° |
| 2026-05-06 02:37 | 33.02803 | -111.43826 | 9314 ft | 325 kts | 309° |
| 2026-05-06 02:38 | 33.04275 | -111.45734 | 9060 ft | 301 kts | 309° |
| 2026-05-06 02:38 | 33.05639 | -111.47507 | 8960 ft | 284 kts | 307° |
| 2026-05-06 02:38 | 33.06845 | -111.49390 | 8952 ft | 287 kts | 301° |
| 2026-05-06 02:38 | 33.07959 | -111.51359 | 8953 ft | 285 kts | 300° |
| 2026-05-06 02:39 | 33.09028 | -111.53330 | 8956 ft | 283 kts | 300° |
| 2026-05-06 02:39 | 33.10082 | -111.55302 | 8951 ft | 283 kts | 300° |
| 2026-05-06 02:39 | 33.11135 | -111.57282 | 8987 ft | 281 kts | 300° |
| 2026-05-06 02:39 | 33.12192 | -111.59263 | 8991 ft | 281 kts | 300° |
| 2026-05-06 02:40 | 33.13238 | -111.61214 | 8993 ft | 283 kts | 299° |
| 2026-05-06 02:40 | 33.14301 | -111.63186 | 8996 ft | 282 kts | 300° |
| 2026-05-06 02:40 | 33.15366 | -111.65161 | 9000 ft | 282 kts | 300° |
| 2026-05-06 02:40 | 33.16420 | -111.67118 | 9004 ft | 283 kts | 300° |
| 2026-05-06 02:41 | 33.17479 | -111.69094 | 9006 ft | 282 kts | 300° |
| 2026-05-06 02:41 | 33.18517 | -111.71045 | 8995 ft | 282 kts | 300° |
| 2026-05-06 02:41 | 33.19571 | -111.73020 | 9004 ft | 282 kts | 300° |
| 2026-05-06 02:41 | 33.20629 | -111.75003 | 9006 ft | 282 kts | 300° |
| 2026-05-06 02:42 | 33.21683 | -111.76978 | 9002 ft | 282 kts | 300° |
| 2026-05-06 02:42 | 33.22744 | -111.78958 | 9009 ft | 283 kts | 300° |
| 2026-05-06 02:42 | 33.23785 | -111.80917 | 9003 ft | 280 kts | 300° |
| 2026-05-06 02:42 | 33.24818 | -111.82880 | 9004 ft | 279 kts | 300° |
| 2026-05-06 02:43 | 33.25849 | -111.84853 | 8847 ft | 279 kts | 300° |
| 2026-05-06 02:43 | 33.26870 | -111.86827 | 8390 ft | 278 kts | 299° |
| 2026-05-06 02:43 | 33.27864 | -111.88763 | 8036 ft | 272 kts | 300° |
| 2026-05-06 02:43 | 33.28841 | -111.90675 | 7712 ft | 266 kts | 300° |
| 2026-05-06 02:44 | 33.29801 | -111.92541 | 7390 ft | 261 kts | 300° |
| 2026-05-06 02:44 | 33.30752 | -111.94375 | 7062 ft | 256 kts | 300° |
| 2026-05-06 02:44 | 33.31681 | -111.96173 | 6718 ft | 251 kts | 300° |
| 2026-05-06 02:44 | 33.32576 | -111.97915 | 6398 ft | 247 kts | 300° |
| 2026-05-06 02:45 | 33.33479 | -111.99652 | 6089 ft | 244 kts | 304° |
| 2026-05-06 02:45 | 33.34703 | -112.01034 | 5760 ft | 245 kts | 328° |
| 2026-05-06 02:45 | 33.36364 | -112.01554 | 5432 ft | 254 kts | 358° |
| 2026-05-06 02:45 | 33.38111 | -112.01141 | 5137 ft | 256 kts | 12° |
| 2026-05-06 02:46 | 33.39797 | -112.00564 | 5004 ft | 256 kts | 13° |
| 2026-05-06 02:46 | 33.41513 | -111.99968 | 4974 ft | 256 kts | 16° |
| 2026-05-06 02:46 | 33.43123 | -111.99001 | 4981 ft | 260 kts | 27° |
| 2026-05-06 02:46 | 33.44667 | -111.97913 | 4977 ft | 260 kts | 28° |
| 2026-05-06 02:47 | 33.46257 | -111.96919 | 4974 ft | 254 kts | 14° |
| 2026-05-06 02:47 | 33.47917 | -111.96794 | 4978 ft | 228 kts | 343° |
| 2026-05-06 02:47 | 33.49254 | -111.97617 | 4983 ft | 215 kts | 319° |
| 2026-05-06 02:47 | 33.50431 | -111.98702 | 4980 ft | 213 kts | 319° |
| 2026-05-06 02:48 | 33.51619 | -111.99796 | 4978 ft | 215 kts | 319° |
| 2026-05-06 02:48 | 33.52788 | -112.00882 | 4978 ft | 214 kts | 319° |
| 2026-05-06 02:48 | 33.53961 | -112.01979 | 4978 ft | 213 kts | 319° |
| 2026-05-06 02:48 | 33.55140 | -112.03079 | 4973 ft | 216 kts | 319° |
| 2026-05-06 02:49 | 33.56322 | -112.04181 | 5006 ft | 213 kts | 319° |
| 2026-05-06 02:49 | 33.57491 | -112.05262 | 5002 ft | 217 kts | 319° |
| 2026-05-06 02:49 | 33.58623 | -112.06417 | 5001 ft | 211 kts | 305° |
| 2026-05-06 02:49 | 33.59106 | -112.07982 | 5017 ft | 206 kts | 270° |
| 2026-05-06 02:50 | 33.58971 | -112.09717 | 5008 ft | 208 kts | 262° |
| 2026-05-06 02:50 | 33.58784 | -112.11388 | 4999 ft | 194 kts | 261° |
| 2026-05-06 02:50 | 33.58612 | -112.12938 | 4952 ft | 182 kts | 262° |
| 2026-05-06 02:50 | 33.58452 | -112.14411 | 4917 ft | 179 kts | 262° |
| 2026-05-06 02:51 | 33.58294 | -112.15920 | 4818 ft | 182 kts | 262° |
| 2026-05-06 02:51 | 33.58125 | -112.17475 | 4712 ft | 198 kts | 262° |
| 2026-05-06 02:51 | 33.57870 | -112.18981 | 4606 ft | 180 kts | 246° |
| 2026-05-06 02:51 | 33.57340 | -112.20354 | 4470 ft | 181 kts | 247° |
| 2026-05-06 02:52 | 33.56835 | -112.21731 | 4410 ft | 182 kts | 246° |
| 2026-05-06 02:52 | 33.56325 | -112.23127 | 4361 ft | 180 kts | 246° |
| 2026-05-06 02:52 | 33.55653 | -112.24368 | 4303 ft | 180 kts | 224° |
| 2026-05-06 02:52 | 33.54675 | -112.25341 | 4260 ft | 185 kts | 222° |
| 2026-05-06 02:53 | 33.53713 | -112.26304 | 4189 ft | 172 kts | 223° |
| 2026-05-06 02:53 | 33.52845 | -112.27175 | 4065 ft | 151 kts | 223° |
| 2026-05-06 02:53 | 33.52103 | -112.27982 | 3952 ft | 144 kts | 228° |
| 2026-05-06 02:53 | 33.51435 | -112.28870 | 3830 ft | 144 kts | 227° |
| 2026-05-06 02:54 | 33.50703 | -112.29654 | 3547 ft | 139 kts | 224° |
| 2026-05-06 02:54 | 33.49966 | -112.30400 | 3177 ft | 138 kts | 223° |
| 2026-05-06 02:54 | 33.49220 | -112.31152 | 2880 ft | 142 kts | 219° |
| 2026-05-06 02:54 | 33.48450 | -112.31828 | 2648 ft | 137 kts | 219° |
| 2026-05-06 02:55 | 33.47675 | -112.32538 | 2362 ft | 141 kts | 220° |
| 2026-05-06 02:55 | 33.46980 | -112.33189 | 2110 ft | 138 kts | 219° |
| 2026-05-06 02:55 | 33.46223 | -112.33907 | 1845 ft | 138 kts | 219° |
| 2026-05-06 02:55 | 33.45442 | -112.34629 | 1635 ft | 140 kts | 219° |
| 2026-05-06 02:56 | 33.44672 | -112.35359 | 1443 ft | 146 kts | 218° |
| 2026-05-06 02:56 | 33.43891 | -112.36087 | 1235 ft | 137 kts | 218° |
| 2026-05-06 02:56 | 33.43145 | -112.36770 | 1033 ft | 137 kts | 220° |
| 2026-05-06 02:56 | 33.42409 | -112.37460 | 966 ft | 122 kts | 218° |
| 2026-05-06 02:57 | 33.41902 | -112.37934 | 958 ft | 65 kts | 217° |
| 2026-05-06 02:57 | 33.41625 | -112.38189 | 953 ft | 46 kts | 218° |
| 2026-05-06 02:57 | 33.41460 | -112.38284 | 952 ft | 20 kts | 162° |
| 2026-05-06 02:57 | 33.41436 | -112.38216 | 949 ft | 12 kts | 67° |
| 2026-05-06 02:58 | 33.41513 | -112.38133 | 952 ft | 20 kts | 38° |
| 2026-05-06 02:58 | 33.41642 | -112.38013 | 954 ft | 27 kts | 38° |
| 2026-05-06 02:58 | 33.41806 | -112.37861 | 955 ft | 32 kts | 37° |
| 2026-05-06 02:58 | 33.41995 | -112.37683 | 954 ft | 37 kts | 38° |
| 2026-05-06 02:59 | 33.42203 | -112.37494 | 961 ft | 39 kts | 38° |
| 2026-05-06 02:59 | 33.42414 | -112.37291 | 969 ft | 40 kts | 38° |
| 2026-05-06 02:59 | 33.42632 | -112.37085 | 968 ft | 33 kts | 38° |
| 2026-05-06 02:59 | 33.42675 | -112.37045 | 966 ft | 4 kts | 38° |
| 2026-05-06 03:00 | 33.42753 | -112.36954 | 971 ft | 0 kts | 81° |
| 2026-05-06 03:00 | 33.42717 | -112.36888 | 970 ft | 15 kts | 153° |
| 2026-05-06 03:00 | 33.42649 | -112.37231 | 973 ft | 0 kts | 219° |
| 2026-05-06 03:00 | 33.42601 | -112.37248 | 978 ft | 19 kts | 177° |
| 2026-05-06 03:01 | 33.42537 | -112.37182 | 972 ft | 0 kts | 95° |
| 2026-05-06 03:01 | 33.42547 | -112.37153 | 976 ft | 7 kts | 50° |
| 2026-05-06 03:01 | 33.42614 | -112.37103 | 979 ft | 14 kts | 38° |
| 2026-05-06 03:01 | 33.42714 | -112.37011 | 970 ft | 22 kts | 37° |
| 2026-05-06 03:02 | 33.42735 | -112.36916 | 968 ft | 13 kts | 107° |
| 2026-05-06 03:02 | 33.42672 | -112.36834 | 974 ft | 11 kts | 180° |
| 2026-05-06 03:02 | 33.42633 | -112.36780 | 967 ft | 3 kts | 84° |
| 2026-05-06 03:02 | 33.42644 | -112.36764 | 965 ft | 6 kts | 51° |
| 2026-05-06 03:03 | 33.42657 | -112.36749 | 966 ft | 2 kts | 46° |
| 2026-05-06 03:03 | 33.42661 | -112.36744 | 967 ft | 0 kts | 46° |